Time;durP1;ratioP1;P1;durP2;ratioP2;P2;SDS_P1;SDS_P2;PMS_P1;PMS_P2;Temp;Humidity;BMP_temperature;BMP_pressure;BME280_temperature;BME280_humidity;BME280_pressure;Samples;Min_cycle;Max_cycle;Signal;HPM_P1;HPM_P2
2023/06/28 00:02:10;;;;;;;6.13;2.90;;;16.00;1.00;;;;;;4955478;28;20546;-70
2023/06/28 00:04:37;;;;;;;6.20;2.97;;;16.00;1.00;;;;;;4943503;28;20469;-72
2023/06/28 00:07:07;;;;;;;4.30;2.60;;;16.00;1.00;;;;;;4950292;28;20477;-70
2023/06/28 00:09:35;;;;;;;7.57;3.60;;;15.90;1.00;;;;;;4954030;28;20467;-70
2023/06/28 00:12:11;;;;;;;5.60;3.60;;;15.90;1.00;;;;;;4955153;28;20539;-71
2023/06/28 00:14:39;;;;;;;5.73;3.43;;;15.90;1.00;;;;;;4951340;28;20466;-70
2023/06/28 00:17:08;;;;;;;5.23;3.07;;;15.80;1.00;;;;;;4954193;28;20966;-70
2023/06/28 00:19:36;;;;;;;4.47;3.03;;;15.80;1.00;;;;;;4953412;28;20483;-70
2023/06/28 00:22:04;;;;;;;3.50;2.90;;;15.80;1.00;;;;;;4951712;28;20560;-68
2023/06/28 00:24:32;;;;;;;6.57;3.33;;;15.80;1.00;;;;;;4956035;28;20460;-70
2023/06/28 00:26:58;;;;;;;5.83;3.20;;;15.80;1.00;;;;;;4952483;28;21084;-69
2023/06/28 00:29:25;;;;;;;5.33;3.00;;;15.80;1.00;;;;;;4956623;28;20908;-69
2023/06/28 00:31:52;;;;;;;3.13;2.93;;;15.80;1.00;;;;;;4955155;28;20491;-69
2023/06/28 00:34:21;;;;;;;7.00;3.77;;;15.80;1.00;;;;;;4953398;28;21031;-68
2023/06/28 00:36:48;;;;;;;4.20;3.80;;;15.80;1.00;;;;;;4952945;28;20472;-71
2023/06/28 00:39:15;;;;;;;3.70;3.13;;;15.80;1.00;;;;;;4954902;28;22032;-70
2023/06/28 00:41:42;;;;;;;6.50;3.63;;;15.80;1.00;;;;;;4955738;28;20458;-70
2023/06/28 00:44:09;;;;;;;5.50;3.63;;;15.70;1.00;;;;;;4969711;28;20562;-69
2023/06/28 00:46:36;;;;;;;4.07;3.33;;;15.70;1.00;;;;;;4963761;28;20579;-71
2023/06/28 00:49:03;;;;;;;4.77;3.50;;;15.70;1.00;;;;;;4968926;28;20535;-70
2023/06/28 00:51:33;;;;;;;5.20;3.30;;;15.70;1.00;;;;;;4949617;28;20872;-71
2023/06/28 00:54:00;;;;;;;6.80;3.33;;;15.70;1.00;;;;;;4956151;28;20541;-70
2023/06/28 00:56:28;;;;;;;3.77;3.33;;;15.70;1.00;;;;;;4946239;28;20617;-70
2023/06/28 00:58:56;;;;;;;5.13;3.33;;;15.70;1.00;;;;;;4953578;28;20459;-70
2023/06/28 01:01:23;;;;;;;4.73;3.33;;;15.60;1.00;;;;;;4960751;28;20540;-76
2023/06/28 01:03:53;;;;;;;5.27;3.70;;;15.60;1.00;;;;;;4962485;23;20485;-68
2023/06/28 01:06:21;;;;;;;4.80;3.40;;;15.60;1.00;;;;;;4958872;28;20478;-68
2023/06/28 01:08:51;;;;;;;6.07;3.60;;;15.60;1.00;;;;;;4961100;28;20814;-69
2023/06/28 01:11:19;;;;;;;5.10;3.73;;;15.50;1.00;;;;;;4960652;28;20929;-69
2023/06/28 01:13:46;;;;;;;8.07;3.70;;;15.50;1.00;;;;;;4958946;28;20575;-69
2023/06/28 01:16:13;;;;;;;4.97;3.50;;;15.50;1.00;;;;;;4959102;28;20478;-68
2023/06/28 01:18:40;;;;;;;5.77;3.90;;;15.50;1.00;;;;;;4958138;28;21219;-70
2023/06/28 01:21:14;;;;;;;6.07;3.53;;;15.50;1.00;;;;;;4959020;28;20482;-67
2023/06/28 01:23:43;;;;;;;4.50;3.63;;;15.50;1.00;;;;;;4962828;28;20460;-67
2023/06/28 01:26:14;;;;;;;6.37;3.70;;;15.50;1.00;;;;;;4962449;28;20499;-68
2023/06/28 01:28:41;;;;;;;5.43;3.40;;;15.50;1.00;;;;;;4957503;28;20554;-68
2023/06/28 01:31:10;;;;;;;5.73;3.20;;;15.50;1.00;;;;;;4959935;28;20473;-72
2023/06/28 01:33:37;;;;;;;7.83;3.30;;;15.50;1.00;;;;;;4960584;28;20484;-69
2023/06/28 01:36:05;;;;;;;5.03;3.80;;;15.50;1.00;;;;;;4964802;28;20557;-68
2023/06/28 01:38:33;;;;;;;4.83;3.60;;;15.50;1.00;;;;;;4969178;28;20474;-68
2023/06/28 01:41:01;;;;;;;3.27;3.00;;;15.50;1.00;;;;;;4964063;28;20473;-68
2023/06/28 01:43:29;;;;;;;10.37;3.97;;;15.40;1.00;;;;;;4966307;28;21194;-67
2023/06/28 01:45:56;;;;;;;4.90;3.40;;;15.40;1.00;;;;;;4966768;28;20483;-67
2023/06/28 01:48:23;;;;;;;6.50;3.63;;;15.40;1.00;;;;;;4968208;28;20474;-68
2023/06/28 01:50:50;;;;;;;6.03;3.43;;;15.30;1.00;;;;;;4956121;28;20477;-68
2023/06/28 01:53:18;;;;;;;4.70;3.30;;;15.30;1.00;;;;;;4964933;28;20467;-68
2023/06/28 01:55:46;;;;;;;6.00;3.80;;;15.20;1.00;;;;;;4967617;28;20506;-68
2023/06/28 01:58:14;;;;;;;5.87;3.63;;;15.20;1.00;;;;;;4965240;28;20464;-70
2023/06/28 02:00:41;;;;;;;7.83;3.67;;;15.20;1.00;;;;;;4964678;28;20498;-69
2023/06/28 02:03:08;;;;;;;8.07;3.60;;;15.20;1.00;;;;;;4966161;28;20895;-69
2023/06/28 02:05:35;;;;;;;4.30;3.20;;;15.20;1.00;;;;;;4964200;28;20491;-69
2023/06/28 02:08:02;;;;;;;4.17;3.77;;;15.10;1.00;;;;;;4965886;28;20519;-68
2023/06/28 02:10:29;;;;;;;5.33;3.63;;;15.10;1.00;;;;;;4963529;28;20546;-69
2023/06/28 02:12:56;;;;;;;7.53;3.53;;;15.10;1.00;;;;;;4965737;28;21040;-68
2023/06/28 02:15:24;;;;;;;4.50;3.60;;;15.10;1.00;;;;;;4962550;28;20483;-68
2023/06/28 02:17:58;;;;;;;4.73;4.00;;;15.10;1.00;;;;;;4964229;28;20459;-67
2023/06/28 02:20:25;;;;;;;5.40;3.47;;;15.00;1.00;;;;;;4963466;28;20467;-68
2023/06/28 02:22:52;;;;;;;4.27;3.10;;;15.00;1.00;;;;;;4954508;28;20475;-69
2023/06/28 02:25:19;;;;;;;6.10;3.70;;;15.00;1.00;;;;;;4967120;28;20551;-68
2023/06/28 02:27:46;;;;;;;4.50;3.60;;;15.00;1.00;;;;;;4961169;28;20967;-68
2023/06/28 02:30:13;;;;;;;6.13;3.73;;;15.00;1.00;;;;;;4954291;28;20471;-68
2023/06/28 02:32:43;;;;;;;6.90;3.93;;;15.10;1.00;;;;;;4954470;28;20503;-68
2023/06/28 02:35:10;;;;;;;7.17;4.30;;;15.10;1.00;;;;;;4953125;28;20478;-70
2023/06/28 02:37:37;;;;;;;5.43;3.70;;;15.20;1.00;;;;;;4953996;28;20551;-68
2023/06/28 02:40:05;;;;;;;5.20;4.10;;;15.30;1.00;;;;;;4956786;28;21458;-69
2023/06/28 02:42:32;;;;;;;7.67;3.90;;;15.30;1.00;;;;;;4964849;28;20469;-69
2023/06/28 02:44:59;;;;;;;6.87;3.10;;;15.30;1.00;;;;;;4965982;28;20475;-68
2023/06/28 02:47:26;;;;;;;6.20;3.30;;;15.30;1.00;;;;;;4965684;28;20495;-68
2023/06/28 02:49:55;;;;;;;5.93;3.50;;;15.30;1.00;;;;;;4964955;28;20471;-68
2023/06/28 02:52:22;;;;;;;5.73;3.67;;;15.30;1.00;;;;;;4969417;28;20483;-68
2023/06/28 02:54:49;;;;;;;6.70;3.30;;;15.40;1.00;;;;;;4963896;28;20562;-68
2023/06/28 02:57:16;;;;;;;5.37;3.57;;;15.40;1.00;;;;;;4968769;28;20848;-69
2023/06/28 02:59:43;;;;;;;5.93;4.00;;;15.40;1.00;;;;;;4967300;28;20488;-68
2023/06/28 03:02:15;;;;;;;8.13;3.23;;;15.40;1.00;;;;;;4956828;28;20428;-68
2023/06/28 03:04:42;;;;;;;5.97;3.73;;;15.40;1.00;;;;;;4953921;28;20573;-69
2023/06/28 03:07:14;;;;;;;6.50;3.00;;;15.40;1.00;;;;;;4961899;28;20471;-69
2023/06/28 03:09:41;;;;;;;5.13;3.60;;;15.40;1.00;;;;;;4956271;28;20652;-70
2023/06/28 03:12:10;;;;;;;4.30;3.90;;;15.40;1.00;;;;;;4960346;28;20468;-68
2023/06/28 03:14:37;;;;;;;5.37;3.63;;;15.50;1.00;;;;;;4956878;28;20482;-69
2023/06/28 03:17:05;;;;;;;5.77;3.67;;;15.50;1.00;;;;;;4955828;28;20857;-70
2023/06/28 03:19:32;;;;;;;4.10;3.53;;;15.50;1.00;;;;;;4955154;28;20558;-69
2023/06/28 03:21:59;;;;;;;5.37;3.37;;;15.50;1.00;;;;;;4960417;28;20882;-69
2023/06/28 03:24:28;;;;;;;3.90;3.57;;;15.50;1.00;;;;;;4960464;28;20610;-68
2023/06/28 03:26:56;;;;;;;9.70;3.93;;;15.50;1.00;;;;;;4960296;28;20475;-68
2023/06/28 03:29:23;;;;;;;9.30;5.00;;;15.50;1.00;;;;;;4957304;28;20591;-68
2023/06/28 03:31:51;;;;;;;6.40;3.70;;;15.50;1.00;;;;;;4966231;28;20473;-68
2023/06/28 03:34:18;;;;;;;5.90;3.37;;;15.50;1.00;;;;;;4956141;28;21598;-69
2023/06/28 03:36:47;;;;;;;3.40;3.10;;;15.50;1.00;;;;;;4956474;28;20460;-69
2023/06/28 03:39:15;;;;;;;6.57;4.13;;;15.50;1.00;;;;;;4958897;28;20901;-70
2023/06/28 03:41:44;;;;;;;4.40;3.43;;;15.50;1.00;;;;;;4954865;28;20535;-68
2023/06/28 03:44:11;;;;;;;5.47;3.90;;;15.50;1.00;;;;;;4957309;28;20482;-69
2023/06/28 03:46:38;;;;;;;7.27;3.73;;;15.50;1.00;;;;;;4955097;28;20456;-69
2023/06/28 03:49:05;;;;;;;3.77;3.30;;;15.60;1.00;;;;;;4956666;28;20487;-69
2023/06/28 03:51:33;;;;;;;5.93;3.10;;;15.60;1.00;;;;;;4962420;28;20475;-68
2023/06/28 03:54:00;;;;;;;10.70;4.23;;;15.60;1.00;;;;;;4964581;28;20510;-69
2023/06/28 03:56:27;;;;;;;4.87;3.40;;;15.60;1.00;;;;;;4969573;28;20557;-68
2023/06/28 03:58:56;;;;;;;4.40;3.27;;;15.60;1.00;;;;;;4967934;28;20475;-71
2023/06/28 04:01:23;;;;;;;3.63;3.30;;;15.70;1.00;;;;;;4964521;28;20524;-70
2023/06/28 04:03:50;;;;;;;4.13;3.27;;;15.70;1.00;;;;;;4944952;28;20491;-70
2023/06/28 04:06:18;;;;;;;4.60;3.60;;;15.80;1.00;;;;;;4959534;28;20520;-69
2023/06/28 04:08:46;;;;;;;6.00;3.20;;;15.80;1.00;;;;;;4961727;28;20464;-78
2023/06/28 04:11:13;;;;;;;4.90;2.97;;;15.80;1.00;;;;;;4958697;28;20469;-69
2023/06/28 04:13:41;;;;;;;4.93;3.97;;;15.80;1.00;;;;;;4948118;28;20495;-69
2023/06/28 04:16:10;;;;;;;4.47;3.67;;;15.80;1.00;;;;;;4963642;28;20468;-68
2023/06/28 04:18:37;;;;;;;6.10;4.20;;;15.80;1.00;;;;;;4967180;28;20481;-70
2023/06/28 04:21:05;;;;;;;6.50;3.77;;;15.80;1.00;;;;;;4964896;28;20463;-69
2023/06/28 04:23:35;;;;;;;7.87;4.80;;;15.80;1.00;;;;;;4960201;28;20483;-69
2023/06/28 04:26:03;;;;;;;5.33;3.30;;;15.70;1.00;;;;;;4967560;28;20481;-71
2023/06/28 04:28:30;;;;;;;7.20;3.70;;;15.70;1.00;;;;;;4963924;28;20860;-72
2023/06/28 04:30:57;;;;;;;4.70;3.53;;;15.80;1.00;;;;;;4956826;28;20480;-69
2023/06/28 04:33:29;;;;;;;6.83;3.90;;;15.70;1.00;;;;;;4956263;28;21002;-69
2023/06/28 04:35:57;;;;;;;5.90;4.00;;;15.80;1.00;;;;;;4939193;28;20545;-69
2023/06/28 04:38:24;;;;;;;5.87;3.90;;;15.80;1.00;;;;;;4960684;28;20511;-69
2023/06/28 04:40:51;;;;;;;7.07;3.53;;;15.80;1.00;;;;;;4958455;28;21089;-71
2023/06/28 04:43:20;;;;;;;6.30;3.97;;;15.80;1.00;;;;;;4963853;28;20477;-70
2023/06/28 04:45:48;;;;;;;5.93;3.77;;;15.80;1.00;;;;;;4964321;28;20452;-72
2023/06/28 04:48:16;;;;;;;5.03;3.73;;;15.80;1.00;;;;;;4954816;28;20465;-70
2023/06/28 04:50:47;;;;;;;7.00;3.43;;;15.80;1.00;;;;;;4956522;28;20560;-72
2023/06/28 04:53:14;;;;;;;3.93;3.37;;;15.90;1.00;;;;;;4951071;28;20479;-69
2023/06/28 04:55:43;;;;;;;7.00;3.90;;;15.90;1.00;;;;;;4958937;28;20472;-70
2023/06/28 04:58:10;;;;;;;5.80;4.77;;;15.90;1.00;;;;;;4952058;28;20467;-70
2023/06/28 05:00:41;;;;;;;6.67;3.80;;;15.90;1.00;;;;;;4958661;28;20455;-72
2023/06/28 05:03:10;;;;;;;5.83;4.07;;;16.00;1.00;;;;;;4957690;28;20456;-70
2023/06/28 05:05:38;;;;;;;6.70;4.40;;;16.00;1.00;;;;;;4915943;28;20487;-70
2023/06/28 05:08:09;;;;;;;7.90;4.10;;;16.10;1.00;;;;;;4911433;28;20497;-69
2023/06/28 05:10:37;;;;;;;7.93;4.97;;;16.10;1.00;;;;;;4923172;28;20461;-69
2023/06/28 05:13:04;;;;;;;4.07;3.63;;;16.20;1.00;;;;;;4926473;28;20502;-70
2023/06/28 05:15:35;;;;;;;6.13;3.50;;;16.20;1.00;;;;;;4915043;28;20562;-69
2023/06/28 05:18:02;;;;;;;4.07;3.67;;;16.20;1.00;;;;;;4908807;28;21107;-70
2023/06/28 05:20:29;;;;;;;6.67;3.23;;;16.20;1.00;;;;;;4913425;28;20568;-69
2023/06/28 05:23:11;;;;;;;5.70;3.80;;;16.30;1.00;;;;;;4912297;28;20492;-72
2023/06/28 05:25:39;;;;;;;6.40;3.67;;;16.30;1.00;;;;;;4918315;28;20457;-70
2023/06/28 05:28:06;;;;;;;4.83;3.43;;;16.40;1.00;;;;;;4912449;28;20574;-70
2023/06/28 05:30:33;;;;;;;4.97;3.83;;;16.40;1.00;;;;;;4919101;28;20493;-70
2023/06/28 05:33:02;;;;;;;6.13;3.43;;;16.40;1.00;;;;;;4916281;28;20557;-70
2023/06/28 05:35:32;;;;;;;5.83;3.60;;;16.40;1.00;;;;;;4923909;28;20556;-70
2023/06/28 05:38:00;;;;;;;7.00;3.80;;;16.40;1.00;;;;;;4928102;28;20472;-72
2023/06/28 05:40:29;;;;;;;7.33;3.40;;;16.40;1.00;;;;;;4927492;28;20469;-72
2023/06/28 05:42:58;;;;;;;3.90;3.50;;;16.30;1.00;;;;;;4929394;28;20877;-70
2023/06/28 05:45:25;;;;;;;7.60;3.90;;;16.30;1.00;;;;;;4930556;28;20490;-69
2023/06/28 05:47:53;;;;;;;5.50;4.13;;;16.20;1.00;;;;;;4928559;28;20473;-70
2023/06/28 05:50:21;;;;;;;6.30;3.67;;;16.20;1.00;;;;;;4924906;28;20555;-69
2023/06/28 05:52:50;;;;;;;5.47;4.23;;;16.30;1.00;;;;;;4922064;28;20928;-69
2023/06/28 05:55:17;;;;;;;6.03;5.20;;;16.30;1.00;;;;;;4918088;28;20552;-69
2023/06/28 05:57:46;;;;;;;7.47;3.63;;;16.30;1.00;;;;;;4915977;28;20853;-70
2023/06/28 06:00:14;;;;;;;3.63;3.33;;;16.30;1.00;;;;;;4927698;28;20588;-72
2023/06/28 06:02:41;;;;;;;6.07;4.20;;;16.30;1.00;;;;;;4925596;28;20494;-71
2023/06/28 06:05:13;;;;;;;9.53;4.90;;;16.30;1.00;;;;;;4952615;28;20451;-70
2023/06/28 06:07:40;;;;;;;4.53;3.60;;;16.30;1.00;;;;;;4959672;28;20909;-69
2023/06/28 06:10:10;;;;;;;5.50;4.43;;;16.50;1.00;;;;;;4965277;28;20567;-71
2023/06/28 06:12:37;;;;;;;6.00;3.73;;;16.70;1.00;;;;;;4968062;28;20475;-69
2023/06/28 06:15:07;;;;;;;5.60;3.70;;;17.00;1.00;;;;;;4959799;28;20539;-71
2023/06/28 06:17:35;;;;;;;4.77;3.20;;;17.40;1.00;;;;;;4948528;28;20472;-72
2023/06/28 06:20:02;;;;;;;5.73;3.50;;;17.60;1.00;;;;;;4954233;28;20479;-70
2023/06/28 06:22:33;;;;;;;7.13;3.60;;;17.70;1.00;;;;;;4934618;28;20485;-69
2023/06/28 06:25:01;;;;;;;3.93;3.23;;;17.80;1.00;;;;;;4964047;28;20465;-71
2023/06/28 06:27:28;;;;;;;6.73;4.17;;;17.80;1.00;;;;;;4963713;28;20506;-71
2023/06/28 06:29:56;;;;;;;10.27;3.70;;;17.80;1.00;;;;;;4955675;28;20974;-72
2023/06/28 06:32:24;;;;;;;4.27;3.53;;;17.70;1.00;;;;;;4968222;28;21854;-72
2023/06/28 06:34:51;;;;;;;6.17;3.43;;;17.70;1.00;;;;;;4966796;28;20571;-70
2023/06/28 06:37:18;;;;;;;4.90;3.40;;;17.70;1.00;;;;;;4953412;28;20470;-72
2023/06/28 06:39:45;;;;;;;5.37;3.60;;;17.80;1.00;;;;;;4963728;28;20496;-70
2023/06/28 06:42:14;;;;;;;4.80;3.33;;;17.80;1.00;;;;;;4960984;28;20560;-73
2023/06/28 06:44:40;;;;;;;4.00;2.90;;;17.70;1.00;;;;;;4954784;28;20539;-71
2023/06/28 06:47:08;;;;;;;2.80;2.53;;;17.80;1.00;;;;;;4961842;28;21301;-74
2023/06/28 06:49:38;;;;;;;6.87;3.37;;;17.80;1.00;;;;;;4952387;28;20470;-72
2023/06/28 06:52:06;;;;;;;5.57;3.40;;;17.90;1.00;;;;;;4961460;28;20476;-71
2023/06/28 06:54:33;;;;;;;4.20;2.83;;;18.00;1.00;;;;;;4961321;28;20462;-71
2023/06/28 06:57:01;;;;;;;6.63;4.00;;;18.00;1.00;;;;;;4962963;28;20473;-76
2023/06/28 06:59:29;;;;;;;7.70;3.67;;;18.10;1.00;;;;;;4946925;28;20560;-72
2023/06/28 07:01:56;;;;;;;3.83;2.97;;;18.10;1.00;;;;;;4963624;28;20664;-70
2023/06/28 07:04:23;;;;;;;4.37;2.60;;;18.20;1.00;;;;;;4961967;28;20487;-70
2023/06/28 07:06:52;;;;;;;7.30;3.13;;;18.40;1.00;;;;;;4962365;28;20444;-71
2023/06/28 07:09:19;;;;;;;5.03;2.77;;;18.30;1.00;;;;;;4961040;28;20547;-71
2023/06/28 07:11:49;;;;;;;5.07;3.50;;;18.30;1.00;;;;;;4960266;28;20520;-71
2023/06/28 07:14:16;;;;;;;5.57;3.33;;;18.30;1.00;;;;;;4961199;28;20475;-69
2023/06/28 07:16:45;;;;;;;7.03;3.40;;;18.40;1.00;;;;;;4961283;28;20784;-70
2023/06/28 07:19:12;;;;;;;4.93;3.50;;;18.30;1.00;;;;;;4963848;28;20560;-70
2023/06/28 07:21:39;;;;;;;5.13;2.57;;;18.40;1.00;;;;;;4968503;28;20477;-71
2023/06/28 07:24:08;;;;;;;5.83;3.07;;;18.50;1.00;;;;;;4963926;28;20462;-69
2023/06/28 07:26:35;;;;;;;4.50;2.50;;;18.70;1.00;;;;;;4965872;28;20555;-71
2023/06/28 07:29:02;;;;;;;4.67;2.77;;;18.90;1.00;;;;;;4962232;28;20525;-70
2023/06/28 07:31:29;;;;;;;6.30;2.60;;;19.20;1.00;;;;;;4961383;28;20482;-72
2023/06/28 07:33:57;;;;;;;4.17;2.70;;;19.40;1.00;;;;;;4964964;28;20601;-71
2023/06/28 07:36:25;;;;;;;3.80;2.97;;;19.40;1.00;;;;;;4965446;28;20471;-73
2023/06/28 07:38:51;;;;;;;5.10;3.20;;;19.30;1.00;;;;;;4964998;28;20507;-70
2023/06/28 07:41:20;;;;;;;3.73;2.80;;;19.20;1.00;;;;;;4964471;28;20558;-71
2023/06/28 07:43:47;;;;;;;5.70;2.77;;;19.20;1.00;;;;;;4964234;28;20530;-71
2023/06/28 07:46:14;;;;;;;6.60;2.30;;;19.30;1.00;;;;;;4961788;28;21210;-73
2023/06/28 07:48:41;;;;;;;5.77;2.93;;;19.50;1.00;;;;;;4966063;28;20886;-70
2023/06/28 07:51:08;;;;;;;3.03;2.60;;;19.60;1.00;;;;;;4966554;28;20526;-70
2023/06/28 07:53:35;;;;;;;5.80;2.70;;;19.80;1.00;;;;;;4967084;28;20533;-70
2023/06/28 07:56:03;;;;;;;3.10;2.70;;;20.10;1.00;;;;;;4964799;28;20845;-70
2023/06/28 07:58:31;;;;;;;3.20;2.53;;;20.40;1.00;;;;;;4960374;28;20506;-71
2023/06/28 08:00:58;;;;;;;5.60;2.90;;;20.60;1.00;;;;;;4967637;28;20570;-70
2023/06/28 08:03:25;;;;;;;5.50;2.87;;;20.90;1.00;;;;;;4950033;28;22259;-70
2023/06/28 08:05:52;;;;;;;2.63;2.40;;;21.00;1.00;;;;;;4959430;28;20542;-71
2023/06/28 08:08:19;;;;;;;6.53;2.77;;;21.10;1.00;;;;;;4950569;28;20684;-72
2023/06/28 08:10:46;;;;;;;3.77;2.47;;;21.20;1.00;;;;;;4945822;28;20523;-73
2023/06/28 08:13:13;;;;;;;4.47;2.77;;;21.50;1.00;;;;;;4957661;28;20998;-71
2023/06/28 08:15:42;;;;;;;5.10;2.57;;;21.50;1.00;;;;;;4966909;28;20468;-71
2023/06/28 08:18:09;;;;;;;4.60;2.37;;;21.70;1.00;;;;;;4965374;28;20847;-70
2023/06/28 08:20:37;;;;;;;4.50;2.43;;;21.70;1.00;;;;;;4962549;28;20567;-70
2023/06/28 08:23:04;;;;;;;4.40;2.80;;;21.70;1.00;;;;;;4966346;28;20952;-71
2023/06/28 08:25:31;;;;;;;4.30;2.43;;;21.60;1.00;;;;;;4951565;28;21811;-70
2023/06/28 08:27:58;;;;;;;3.60;2.20;;;21.60;1.00;;;;;;4943068;28;20482;-70
2023/06/28 08:30:25;;;;;;;3.47;1.97;;;21.50;1.00;;;;;;4961703;28;20520;-71
2023/06/28 08:32:53;;;;;;;3.10;2.27;;;21.50;1.00;;;;;;4966396;28;20564;-70
2023/06/28 08:35:20;;;;;;;4.43;2.37;;;21.60;1.00;;;;;;4965358;28;20549;-73
2023/06/28 08:37:47;;;;;;;6.90;2.20;;;21.50;1.00;;;;;;4966878;28;20505;-72
2023/06/28 08:40:15;;;;;;;3.10;2.47;;;21.50;1.00;;;;;;4964568;28;20475;-71
2023/06/28 08:42:45;;;;;;;3.53;1.93;;;21.20;1.00;;;;;;4968044;28;20472;-74
2023/06/28 08:45:14;;;;;;;3.47;2.30;;;21.00;1.00;;;;;;4959822;28;20469;-72
2023/06/28 08:47:42;;;;;;;5.70;2.67;;;21.10;1.00;;;;;;4963767;28;20475;-71
2023/06/28 08:50:12;;;;;;;4.50;2.03;;;21.30;1.00;;;;;;4963220;28;20474;-70
2023/06/28 08:52:42;;;;;;;7.03;2.30;;;21.20;1.00;;;;;;4968236;28;20563;-72
2023/06/28 08:55:10;;;;;;;3.13;2.20;;;21.20;1.00;;;;;;4963685;28;20520;-72
2023/06/28 08:57:39;;;;;;;3.73;2.10;;;21.20;1.00;;;;;;4968259;28;20647;-75
2023/06/28 09:00:10;;;;;;;3.90;2.60;;;21.20;1.00;;;;;;4969093;28;20531;-72
2023/06/28 09:02:37;;;;;;;2.33;1.87;;;21.20;1.00;;;;;;4964268;28;20477;-72
2023/06/28 09:05:07;;;;;;;3.57;2.87;;;21.40;1.00;;;;;;4960249;28;20448;-71
2023/06/28 09:07:37;;;;;;;3.70;2.17;;;21.60;1.00;;;;;;4963115;28;20481;-71
2023/06/28 09:10:06;;;;;;;3.43;2.20;;;21.70;1.00;;;;;;4958473;28;20498;-69
2023/06/28 09:12:35;;;;;;;6.80;3.00;;;22.10;1.00;;;;;;4955737;28;20574;-71
2023/06/28 09:15:04;;;;;;;4.67;2.53;;;22.70;1.00;;;;;;4966423;28;20553;-72
2023/06/28 09:17:32;;;;;;;6.20;3.40;;;22.80;1.00;;;;;;4970449;28;20486;-71
2023/06/28 09:20:02;;;;;;;4.07;2.60;;;22.60;1.00;;;;;;4969411;28;20556;-73
2023/06/28 09:22:30;;;;;;;4.63;2.23;;;22.70;1.00;;;;;;4966026;28;20481;-71
2023/06/28 09:25:04;;;;;;;4.53;2.17;;;23.10;1.00;;;;;;4968416;28;20462;-70
2023/06/28 09:27:32;;;;;;;6.37;2.77;;;23.40;1.00;;;;;;4963011;28;21651;-72
2023/06/28 09:30:01;;;;;;;2.57;1.90;;;23.40;1.00;;;;;;4955655;28;20484;-70
2023/06/28 09:32:39;;;;;;;4.10;2.70;;;23.20;1.00;;;;;;4967984;28;20515;-71
2023/06/28 09:35:11;;;;;;;3.43;2.47;;;23.20;1.00;;;;;;4964055;28;20456;-69
2023/06/28 09:37:39;;;;;;;3.17;2.40;;;23.00;1.00;;;;;;4965162;28;20858;-70
2023/06/28 09:40:09;;;;;;;3.07;2.10;;;23.10;1.00;;;;;;4966045;28;20506;-71
2023/06/28 09:42:45;;;;;;;4.93;2.40;;;23.10;1.00;;;;;;4966899;28;20545;-70
2023/06/28 09:45:23;;;;;;;4.43;1.90;;;23.20;1.00;;;;;;4965108;28;20503;-70
2023/06/28 09:47:55;;;;;;;3.03;2.03;;;23.40;1.00;;;;;;4957261;28;20639;-71
2023/06/28 09:50:22;;;;;;;4.90;2.83;;;24.20;1.00;;;;;;4961246;28;21121;-71
2023/06/28 09:52:48;;;;;;;4.03;2.80;;;24.90;1.00;;;;;;4967438;28;20561;-71
2023/06/28 09:55:18;;;;;;;5.13;1.87;;;24.50;1.00;;;;;;4955708;28;20484;-70
2023/06/28 09:57:46;;;;;;;2.40;2.20;;;24.80;1.00;;;;;;4963137;28;20490;-71
2023/06/28 10:00:16;;;;;;;2.57;2.07;;;24.90;1.00;;;;;;4966988;28;20521;-70
2023/06/28 10:02:43;;;;;;;6.07;2.83;;;24.90;1.00;;;;;;4956797;28;20566;-71
2023/06/28 10:05:12;;;;;;;3.43;2.37;;;25.00;1.00;;;;;;4936992;28;20462;-71
2023/06/28 10:07:41;;;;;;;2.17;1.90;;;25.00;1.00;;;;;;4966676;28;20467;-71
2023/06/28 10:10:09;;;;;;;2.90;2.10;;;24.90;1.00;;;;;;4964944;28;20469;-70
2023/06/28 10:12:39;;;;;;;3.30;1.93;;;24.50;1.00;;;;;;4964255;28;20831;-70
2023/06/28 10:15:10;;;;;;;1.80;1.70;;;24.20;1.00;;;;;;4962071;28;20467;-69
2023/06/28 10:17:39;;;;;;;3.17;1.90;;;24.10;1.00;;;;;;4962717;28;20532;-69
2023/06/28 10:20:08;;;;;;;3.43;2.10;;;24.60;1.00;;;;;;4963445;28;20496;-71
2023/06/28 10:22:37;;;;;;;2.67;2.03;;;25.00;1.00;;;;;;4964594;28;20887;-70
2023/06/28 10:25:06;;;;;;;12.90;3.17;;;24.80;1.00;;;;;;4968967;28;20461;-70
2023/06/28 10:27:34;;;;;;;3.73;1.90;;;24.70;1.00;;;;;;4967340;28;20467;-70
2023/06/28 10:30:04;;;;;;;3.47;2.20;;;25.20;1.00;;;;;;4965399;28;20499;-70
2023/06/28 10:32:32;;;;;;;3.60;2.03;;;25.40;1.00;;;;;;4963386;28;20470;-70
2023/06/28 10:35:00;;;;;;;4.63;2.33;;;25.20;1.00;;;;;;4970294;28;20470;-71
2023/06/28 10:37:27;;;;;;;2.33;1.80;;;25.50;1.00;;;;;;4966768;28;20583;-69
2023/06/28 10:39:54;;;;;;;6.83;2.53;;;27.30;1.00;;;;;;4966511;28;20646;-72
2023/06/28 10:42:22;;;;;;;3.27;1.60;;;28.80;1.00;;;;;;4965105;28;20460;-70
2023/06/28 10:44:53;;;;;;;3.10;2.00;;;28.70;1.00;;;;;;4951105;28;20467;-69
2023/06/28 10:47:22;;;;;;;3.63;2.60;;;28.40;1.00;;;;;;4963283;28;20474;-70
2023/06/28 10:50:08;;;;;;;3.80;2.53;;;28.10;1.00;;;;;;4963367;28;20473;-70
2023/06/28 10:52:36;;;;;;;2.50;1.80;;;28.10;1.00;;;;;;4963109;28;20978;-71
2023/06/28 10:55:04;;;;;;;3.93;2.33;;;28.10;1.00;;;;;;4965424;28;20570;-70
2023/06/28 10:57:37;;;;;;;2.93;1.73;;;28.30;1.00;;;;;;4961675;28;20691;-70
2023/06/28 11:00:09;;;;;;;5.47;2.20;;;29.30;1.00;;;;;;4964328;28;20521;-71
2023/06/28 11:03:02;;;;;;;3.77;2.47;;;29.80;1.00;;;;;;4962593;28;20556;-70
2023/06/28 11:05:55;;;;;;;8.13;5.10;;;30.70;1.00;;;;;;4966125;28;21417;-71
2023/06/28 11:08:36;;;;;;;4.37;2.93;;;31.20;1.00;;;;;;4959553;28;20895;-72
2023/06/28 11:11:03;;;;;;;5.00;2.90;;;30.90;1.00;;;;;;4963411;28;20553;-72
2023/06/28 11:13:44;;;;;;;4.07;2.07;;;29.90;1.00;;;;;;4964880;28;21025;-72
2023/06/28 11:16:16;;;;;;;3.73;2.20;;;28.90;1.00;;;;;;4954503;28;20534;-70
2023/06/28 11:18:46;;;;;;;4.30;3.00;;;29.40;1.00;;;;;;4951396;28;21167;-71
2023/06/28 11:21:18;;;;;;;2.43;2.13;;;30.40;1.00;;;;;;4954076;28;20508;-71
2023/06/28 11:23:47;;;;;;;2.90;1.93;;;30.10;1.00;;;;;;4954274;28;21016;-70
2023/06/28 11:26:18;;;;;;;2.57;1.83;;;29.10;1.00;;;;;;4957453;28;20661;-71
2023/06/28 11:28:49;;;;;;;3.40;1.73;;;28.30;1.00;;;;;;4959698;28;20507;-71
2023/06/28 11:31:20;;;;;;;2.87;2.40;;;27.70;1.00;;;;;;4964792;28;20484;-72
2023/06/28 11:33:50;;;;;;;3.23;2.33;;;27.40;1.00;;;;;;4963690;28;20466;-72
2023/06/28 11:36:18;;;;;;;3.47;2.00;;;27.10;1.00;;;;;;4968111;28;20467;-70
2023/06/28 11:38:46;;;;;;;3.70;2.33;;;26.70;1.00;;;;;;4969326;28;20476;-71
2023/06/28 11:41:15;;;;;;;5.10;2.70;;;26.50;1.00;;;;;;4970692;28;20511;-70
2023/06/28 11:43:45;;;;;;;4.97;1.87;;;26.50;1.00;;;;;;4967680;28;20453;-71
2023/06/28 11:46:18;;;;;;;5.90;2.23;;;27.70;1.00;;;;;;4963533;28;20498;-71
2023/06/28 11:48:46;;;;;;;4.13;2.13;;;29.50;1.00;;;;;;4967843;28;20918;-72
2023/06/28 11:51:14;;;;;;;2.57;2.37;;;30.40;1.00;;;;;;4966910;28;22578;-71
2023/06/28 11:53:41;;;;;;;4.83;2.13;;;30.60;1.00;;;;;;4967986;28;21002;-72
2023/06/28 11:56:09;;;;;;;5.60;2.37;;;30.40;1.00;;;;;;4957171;28;20515;-71
2023/06/28 11:58:37;;;;;;;2.63;2.40;;;29.70;1.00;;;;;;4966240;28;20894;-73
2023/06/28 12:01:05;;;;;;;3.07;2.50;;;29.20;1.00;;;;;;4968972;28;20538;-69
2023/06/28 12:03:37;;;;;;;3.20;2.40;;;28.80;1.00;;;;;;4970149;28;20530;-71
2023/06/28 12:06:06;;;;;;;3.20;1.80;;;28.80;1.00;;;;;;4968279;28;20511;-70
2023/06/28 12:08:36;;;;;;;3.07;2.00;;;28.80;1.00;;;;;;4967917;28;20463;-70
2023/06/28 12:11:09;;;;;;;4.63;2.03;;;28.70;1.00;;;;;;4968738;28;20584;-72
2023/06/28 12:13:37;;;;;;;5.00;2.30;;;28.80;1.00;;;;;;4969277;28;20553;-73
2023/06/28 12:16:13;;;;;;;2.50;2.00;;;28.70;1.00;;;;;;4969777;28;20542;-70
2023/06/28 12:18:54;;;;;;;2.90;2.13;;;30.20;1.00;;;;;;4967627;28;20472;-71
2023/06/28 12:21:21;;;;;;;2.97;1.83;;;31.70;1.00;;;;;;4966374;28;20494;-74
2023/06/28 12:23:50;;;;;;;3.40;1.67;;;32.30;1.00;;;;;;4971325;28;20451;-72
2023/06/28 12:26:18;;;;;;;3.30;2.07;;;31.80;1.00;;;;;;4967224;28;21255;-72
2023/06/28 12:28:49;;;;;;;2.10;1.80;;;31.00;1.00;;;;;;4965721;28;20448;-70
2023/06/28 12:31:16;;;;;;;5.50;2.00;;;30.50;1.00;;;;;;4970833;28;20467;-70
2023/06/28 12:33:43;;;;;;;2.37;1.90;;;31.40;1.00;;;;;;4964625;28;20505;-72
2023/06/28 12:36:14;;;;;;;2.10;1.87;;;32.20;1.00;;;;;;4967405;28;20490;-71
2023/06/28 12:38:45;;;;;;;2.23;1.80;;;32.70;1.00;;;;;;4966560;28;20487;-71
2023/06/28 12:41:15;;;;;;;3.27;1.83;;;32.80;1.00;;;;;;4949424;28;20477;-76
2023/06/28 12:43:42;;;;;;;2.57;1.87;;;32.20;1.00;;;;;;4971476;28;20600;-70
2023/06/28 12:46:11;;;;;;;5.57;2.00;;;32.70;1.00;;;;;;4974103;28;20455;-72
2023/06/28 12:48:38;;;;;;;3.43;1.70;;;32.50;1.00;;;;;;4971898;28;20483;-70
2023/06/28 12:51:06;;;;;;;3.40;1.97;;;31.70;1.00;;;;;;4951447;28;20670;-70
2023/06/28 12:53:34;;;;;;;2.50;1.77;;;31.80;1.00;;;;;;4968168;28;20792;-71
2023/06/28 12:56:01;;;;;;;2.30;1.70;;;33.10;1.00;;;;;;4967760;28;20495;-71
2023/06/28 12:58:29;;;;;;;3.67;2.10;;;34.10;1.00;;;;;;4964794;28;20503;-70
2023/06/28 13:00:56;;;;;;;4.10;1.83;;;34.70;1.00;;;;;;4965591;28;20570;-72
2023/06/28 13:03:23;;;;;;;2.70;2.00;;;34.70;1.00;;;;;;4971895;28;20461;-70
2023/06/28 13:05:50;;;;;;;3.77;2.27;;;35.40;1.00;;;;;;4970992;28;20856;-71